createdAt,value
2023-04-18T00:01:38.680Z,67.70
2023-04-18T00:04:09.428Z,67.53
2023-04-18T00:06:40.209Z,68.27
2023-04-18T00:09:10.731Z,68.39
2023-04-18T00:11:41.015Z,68.26
2023-04-18T00:14:12.170Z,68.63
2023-04-18T00:16:48.871Z,69.48
2023-04-18T00:19:19.152Z,68.69
2023-04-18T00:21:49.641Z,69.38
2023-04-18T00:24:20.034Z,69.50
2023-04-18T00:26:50.241Z,68.33
2023-04-18T00:29:20.272Z,68.97
2023-04-18T00:31:53.368Z,69.43
2023-04-18T00:34:23.613Z,69.42
2023-04-18T00:36:56.675Z,69.19
2023-04-18T00:39:26.815Z,69.06
2023-04-18T00:41:57.308Z,70.10
2023-04-18T00:44:27.357Z,69.26
2023-04-18T00:47:00.292Z,69.05
2023-04-18T00:49:31.077Z,69.76
2023-04-18T00:52:02.482Z,69.26
2023-04-18T00:54:33.194Z,68.83
2023-04-18T00:57:03.367Z,69.37
2023-04-18T00:59:33.792Z,69.39
2023-04-18T01:02:07.513Z,70.09
2023-04-18T01:04:38.010Z,69.89
2023-04-18T01:07:08.735Z,69.50
2023-04-18T01:09:42.329Z,69.80
2023-04-18T01:12:14.960Z,70.55
2023-04-18T01:14:49.047Z,70.63
2023-04-18T01:17:23.700Z,69.79
2023-04-18T01:19:55.170Z,69.92
2023-04-18T01:22:25.754Z,70.84
2023-04-18T01:24:58.944Z,70.56
2023-04-18T01:27:29.304Z,71.22
2023-04-18T01:29:59.705Z,70.46
2023-04-18T01:32:33.367Z,71.50
2023-04-18T01:35:04.144Z,71.11
2023-04-18T01:37:34.909Z,71.27
2023-04-18T01:40:09.546Z,71.27
2023-04-18T01:42:41.252Z,71.72
2023-04-18T01:45:16.181Z,71.93
2023-04-18T01:47:46.801Z,72.69
2023-04-18T01:50:17.485Z,73.15
2023-04-18T01:52:47.987Z,72.81
2023-04-18T01:55:22.716Z,72.63
2023-04-18T01:57:53.686Z,71.85
2023-04-18T02:00:24.793Z,72.84
2023-04-18T02:02:54.951Z,72.22
2023-04-18T02:05:27.323Z,72.48
2023-04-18T02:07:57.981Z,73.73
2023-04-18T02:10:31.172Z,74.77
2023-04-18T02:13:01.312Z,73.82
2023-04-18T02:15:31.555Z,73.76
2023-04-18T02:18:02.827Z,73.24
2023-04-18T02:20:35.108Z,74.11
2023-04-18T02:23:05.983Z,73.72
2023-04-18T02:25:38.832Z,74.57
2023-04-18T02:28:09.083Z,74.77
2023-04-18T02:30:39.628Z,74.83
2023-04-18T02:33:09.884Z,76.82
2023-04-18T02:35:40.962Z,77.23
2023-04-18T02:38:14.155Z,77.83
2023-04-18T02:40:47.472Z,77.27
2023-04-18T02:43:17.966Z,79.15
2023-04-18T02:45:48.300Z,76.63
2023-04-18T02:48:18.724Z,77.67
2023-04-18T02:50:49.426Z,78.65
2023-04-18T02:53:19.978Z,77.43
2023-04-18T02:55:59.344Z,78.61
2023-04-18T02:58:40.303Z,79.38
2023-04-18T03:01:32.225Z,78.12
2023-04-18T03:04:13.167Z,78.44
2023-04-18T03:06:48.040Z,80.64
2023-04-18T03:09:19.327Z,78.21
2023-04-18T03:11:56.889Z,79.29
2023-04-18T03:14:30.485Z,79.79
2023-04-18T03:17:00.833Z,77.35
2023-04-18T03:19:37.487Z,78.64
2023-04-18T03:22:11.750Z,78.47
2023-04-18T03:24:49.375Z,77.06
2023-04-18T03:27:24.400Z,76.45
2023-04-18T03:29:54.762Z,76.61
2023-04-18T03:32:26.156Z,76.84
2023-04-18T03:34:57.187Z,77.42
2023-04-18T03:37:27.527Z,78.13
2023-04-18T03:39:59.723Z,77.48
2023-04-18T03:42:34.425Z,77.96
2023-04-18T03:45:04.506Z,77.31
2023-04-18T03:47:38.184Z,78.32
2023-04-18T03:50:09.931Z,77.03
2023-04-18T03:52:41.132Z,77.07
2023-04-18T03:55:12.349Z,77.37
2023-04-18T03:57:45.132Z,78.19
2023-04-18T04:00:22.735Z,78.20
2023-04-18T04:03:03.086Z,76.73
2023-04-18T04:05:33.340Z,78.11
2023-04-18T04:08:03.510Z,76.95
2023-04-18T04:10:33.713Z,76.16
2023-04-18T04:13:06.612Z,75.99
2023-04-18T04:15:40.391Z,75.89
2023-04-18T04:18:13.449Z,77.29
2023-04-18T04:20:49.031Z,76.97
2023-04-18T04:23:33.286Z,78.30
2023-04-18T04:26:04.850Z,77.70
2023-04-18T04:28:49.313Z,77.03
2023-04-18T04:31:23.240Z,77.62
2023-04-18T04:33:53.920Z,77.27
2023-04-18T04:36:30.288Z,76.99
2023-04-18T04:39:02.905Z,76.04
2023-04-18T04:41:41.689Z,76.52
2023-04-18T04:44:18.100Z,76.56
2023-04-18T04:46:50.033Z,77.18
2023-04-18T04:49:24.951Z,77.58
2023-04-18T04:51:55.139Z,77.46
2023-04-18T04:54:25.435Z,76.79
2023-04-18T04:56:55.800Z,78.47
2023-04-18T04:59:41.532Z,77.78
2023-04-18T05:02:11.904Z,76.88
2023-04-18T05:04:42.485Z,77.69
2023-04-18T05:07:12.986Z,77.10
2023-04-18T05:09:43.180Z,77.83
2023-04-18T05:12:13.479Z,78.35
2023-04-18T05:14:46.689Z,77.40
2023-04-18T05:17:16.847Z,77.91
2023-04-18T05:19:47.232Z,77.21
2023-04-18T05:22:17.567Z,76.67
2023-04-18T05:24:47.824Z,77.33
2023-04-18T05:27:18.294Z,77.71
2023-04-18T05:29:51.152Z,76.14
2023-04-18T05:32:21.894Z,76.47
2023-04-18T05:34:52.306Z,75.94
2023-04-18T05:37:22.740Z,76.83
2023-04-18T05:39:52.990Z,76.68
2023-04-18T05:42:23.121Z,76.62
2023-04-18T05:44:55.887Z,76.07
2023-04-18T05:47:28.710Z,75.65
2023-04-18T05:49:59.000Z,75.11
2023-04-18T05:52:29.268Z,74.99
2023-04-18T05:54:59.651Z,75.57
2023-04-18T05:57:29.954Z,75.13
2023-04-18T06:00:02.848Z,75.10
2023-04-18T06:02:43.007Z,75.00
2023-04-18T06:05:15.401Z,75.44
2023-04-18T06:07:46.218Z,75.00
2023-04-18T06:10:16.546Z,75.10
2023-04-18T06:12:46.636Z,75.92
2023-04-18T06:15:19.658Z,75.03
2023-04-18T06:17:49.960Z,75.43
2023-04-18T06:20:20.234Z,74.92
2023-04-18T06:22:50.677Z,75.90
2023-04-18T06:25:21.075Z,75.58
2023-04-18T06:27:51.205Z,75.72
2023-04-18T06:30:24.174Z,75.50
2023-04-18T06:32:54.634Z,75.11
2023-04-18T06:35:26.496Z,75.53
2023-04-18T06:37:56.810Z,75.79
2023-04-18T06:40:27.185Z,75.34
2023-04-18T06:42:57.261Z,75.40
2023-04-18T06:45:30.325Z,74.22
2023-04-18T06:48:02.043Z,74.31
2023-04-18T06:50:32.591Z,74.40
2023-04-18T06:53:02.775Z,74.57
2023-04-18T06:55:37.056Z,74.64
2023-04-18T06:58:08.817Z,74.62
2023-04-18T07:00:41.600Z,74.62
2023-04-18T07:03:13.866Z,74.62
2023-04-18T07:05:44.435Z,74.45
2023-04-18T07:08:14.627Z,74.66
2023-04-18T07:10:46.981Z,74.68
2023-04-18T07:13:17.512Z,74.51
2023-04-18T07:15:50.534Z,74.57
2023-04-18T07:18:26.765Z,75.22
2023-04-18T07:21:07.958Z,74.98
2023-04-18T07:23:38.347Z,74.97
2023-04-18T07:26:10.229Z,75.20
2023-04-18T07:28:40.630Z,75.18
2023-04-18T07:31:14.855Z,75.11
2023-04-18T07:33:45.430Z,75.48
2023-04-18T07:36:15.605Z,74.52
2023-04-18T07:38:46.522Z,74.91
2023-04-18T07:41:16.976Z,74.98
2023-04-18T07:43:47.481Z,74.92
2023-04-18T07:46:20.336Z,74.96
2023-04-18T07:48:50.928Z,74.04
2023-04-18T07:51:21.105Z,74.30
2023-04-18T07:53:51.317Z,73.97
2023-04-18T07:56:21.969Z,73.02
2023-04-18T07:58:52.324Z,73.01
2023-04-18T08:01:27.360Z,72.68
2023-04-18T08:04:02.044Z,72.18
2023-04-18T08:06:32.572Z,72.32
2023-04-18T08:09:04.851Z,71.63
2023-04-18T08:11:35.695Z,71.28
2023-04-18T08:14:05.943Z,70.84
2023-04-18T08:16:40.023Z,70.61
2023-04-18T08:19:12.296Z,70.75
2023-04-18T08:21:46.009Z,70.90
2023-04-18T08:24:16.292Z,70.69
2023-04-18T08:26:46.541Z,70.69
2023-04-18T08:29:16.743Z,70.54
2023-04-18T08:31:49.579Z,70.73
2023-04-18T08:34:19.768Z,70.49
2023-04-18T08:36:50.126Z,70.57
2023-04-18T08:39:20.476Z,70.30
2023-04-18T08:41:57.545Z,70.33
2023-04-18T08:44:27.955Z,70.36
2023-04-18T08:47:01.957Z,70.04
2023-04-18T08:49:34.159Z,69.91
2023-04-18T08:52:05.622Z,69.15
2023-04-18T08:54:38.354Z,69.22
2023-04-18T08:57:09.262Z,69.43
2023-04-18T08:59:40.449Z,69.37
2023-04-18T09:02:13.370Z,68.79
2023-04-18T09:04:46.107Z,68.89
2023-04-18T09:07:19.058Z,68.49
2023-04-18T09:09:51.040Z,68.33
2023-04-18T09:12:23.256Z,68.00
2023-04-18T09:14:57.820Z,67.94
2023-04-18T09:17:42.474Z,67.46
2023-04-18T09:20:15.582Z,67.67
2023-04-18T09:22:48.923Z,66.79
2023-04-18T09:25:29.697Z,65.84
2023-04-18T09:28:01.314Z,67.21
2023-04-18T09:30:38.433Z,67.88
2023-04-18T09:33:12.967Z,68.41
2023-04-18T09:35:43.012Z,67.04
2023-04-18T09:38:13.189Z,68.38
2023-04-18T09:40:43.354Z,68.22
2023-04-18T09:43:23.457Z,66.57
2023-04-18T09:45:54.908Z,66.34
2023-04-18T09:48:27.863Z,65.77
2023-04-18T09:50:58.222Z,65.39
2023-04-18T09:53:29.392Z,65.88
2023-04-18T09:56:00.610Z,65.35
2023-04-18T09:58:35.537Z,65.56
2023-04-18T10:01:07.657Z,66.04
2023-04-18T10:03:47.412Z,66.38
2023-04-18T10:06:19.669Z,65.73
2023-04-18T10:08:51.914Z,65.07
2023-04-18T10:11:22.179Z,64.96
2023-04-18T10:13:56.157Z,65.74
2023-04-18T10:16:26.953Z,65.69
2023-04-18T10:18:59.813Z,65.94
2023-04-18T10:21:31.725Z,66.02
2023-04-18T10:24:02.094Z,65.95
2023-04-18T10:26:50.546Z,65.84
2023-04-18T10:29:20.936Z,65.90
2023-04-18T10:31:51.893Z,66.00
2023-04-18T10:34:24.797Z,65.58
2023-04-18T10:37:08.740Z,65.61
2023-04-18T10:39:54.043Z,65.59
2023-04-18T10:43:02.652Z,64.46
2023-04-18T10:45:36.667Z,65.06
2023-04-18T10:48:29.544Z,65.07
2023-04-18T10:51:26.551Z,64.86
2023-04-18T10:54:00.578Z,64.81
2023-04-18T10:56:31.471Z,64.67
2023-04-18T10:59:05.638Z,64.49
2023-04-18T11:01:40.723Z,64.75
2023-04-18T11:04:16.573Z,64.60
2023-04-18T11:06:55.094Z,65.12
2023-04-18T11:09:25.459Z,64.79
2023-04-18T11:12:10.042Z,64.34
2023-04-18T11:14:43.926Z,63.92
2023-04-18T11:17:22.463Z,64.12
2023-04-18T11:19:53.325Z,64.05
2023-04-18T11:22:26.268Z,64.23
2023-04-18T11:25:02.046Z,62.77
2023-04-18T11:27:32.750Z,64.00
2023-04-18T11:30:02.886Z,64.16
2023-04-18T11:32:33.621Z,64.21
2023-04-18T11:35:03.965Z,63.60
2023-04-18T11:37:38.148Z,64.31
2023-04-18T11:40:09.239Z,58.42
2023-04-18T11:42:41.500Z,64.38
2023-04-18T11:45:16.150Z,64.05
2023-04-18T11:47:46.980Z,63.41
2023-04-18T11:50:17.558Z,63.48
2023-04-18T11:52:54.181Z,63.67
2023-04-18T11:55:27.420Z,64.03
2023-04-18T11:57:59.052Z,62.97
2023-04-18T12:00:37.717Z,60.99
2023-04-18T12:03:12.648Z,62.92
2023-04-18T12:05:45.399Z,63.15
2023-04-18T12:08:26.029Z,62.40
2023-04-18T12:10:58.014Z,63.36
2023-04-18T12:13:29.776Z,63.47
2023-04-18T12:16:00.871Z,63.13
2023-04-18T12:18:31.705Z,63.74
2023-04-18T12:21:02.230Z,63.66
2023-04-18T12:23:37.229Z,62.72
2023-04-18T12:26:09.124Z,62.70
2023-04-18T12:28:39.536Z,62.48
2023-04-18T12:31:09.884Z,62.15
2023-04-18T12:33:40.242Z,61.83
2023-04-18T12:36:11.380Z,61.34
2023-04-18T12:38:44.764Z,61.81
2023-04-18T12:41:14.945Z,61.45
2023-04-18T12:43:45.660Z,60.74
2023-04-18T12:46:15.910Z,61.07
2023-04-18T12:48:46.357Z,61.48
2023-04-18T12:51:16.890Z,61.42
2023-04-18T12:53:49.628Z,62.01
2023-04-18T12:56:19.836Z,61.54
2023-04-18T12:58:50.080Z,60.78
2023-04-18T13:01:21.135Z,61.32
2023-04-18T13:04:03.936Z,60.98
2023-04-18T13:06:41.582Z,61.48
2023-04-18T13:09:17.156Z,61.43
2023-04-18T13:11:49.557Z,61.47
2023-04-18T13:14:20.091Z,61.12
2023-04-18T13:16:50.228Z,60.77
2023-04-18T13:19:20.581Z,60.97
2023-04-18T13:21:51.855Z,61.11
2023-04-18T13:24:24.794Z,61.54
2023-04-18T13:26:55.128Z,61.28
2023-04-18T13:29:25.349Z,61.47
2023-04-18T13:31:55.832Z,61.34
2023-04-18T13:34:26.065Z,60.85
2023-04-18T13:36:57.878Z,60.76
2023-04-18T13:39:32.232Z,61.58
2023-04-18T13:42:03.465Z,61.57
2023-04-18T13:44:34.118Z,61.92
2023-04-18T13:47:05.188Z,61.63
2023-04-18T13:49:37.420Z,61.54
2023-04-18T13:52:08.547Z,60.78
2023-04-18T13:54:41.536Z,61.07
2023-04-18T13:57:14.889Z,60.69
2023-04-18T13:59:45.168Z,61.11
2023-04-18T14:02:15.992Z,61.32
2023-04-18T14:04:46.888Z,61.52
2023-04-18T14:07:17.219Z,61.72
2023-04-18T14:09:50.816Z,61.93
2023-04-18T14:12:21.925Z,61.15
2023-04-18T14:14:52.210Z,60.62
2023-04-18T14:17:22.733Z,60.79
2023-04-18T14:19:52.979Z,60.57
2023-04-18T14:22:23.522Z,60.96
2023-04-18T14:24:56.790Z,60.98
2023-04-18T14:27:27.576Z,60.92
2023-04-18T14:29:57.739Z,60.66
2023-04-18T14:32:28.238Z,60.91
2023-04-18T14:34:59.220Z,61.06
2023-04-18T14:37:29.470Z,60.78
2023-04-18T14:40:02.356Z,60.67
2023-04-18T14:42:32.485Z,60.14
2023-04-18T14:45:03.344Z,60.64
2023-04-18T14:47:34.962Z,60.93
2023-04-18T14:50:05.087Z,60.53
2023-04-18T14:52:35.802Z,61.06
2023-04-18T14:55:10.076Z,60.79
2023-04-18T14:57:41.184Z,60.73
2023-04-18T15:00:13.203Z,61.03
2023-04-18T15:02:43.943Z,61.24
2023-04-18T15:05:15.344Z,61.51
2023-04-18T15:07:46.228Z,61.33
2023-04-18T15:10:19.062Z,60.67
2023-04-18T15:12:51.479Z,61.13
2023-04-18T15:15:22.963Z,60.70
2023-04-18T15:17:53.079Z,60.91
2023-04-18T15:20:24.094Z,61.13
2023-04-18T15:22:54.697Z,61.21
2023-04-18T15:25:27.951Z,60.72
2023-04-18T15:27:58.401Z,60.97
2023-04-18T15:30:29.227Z,60.89
2023-04-18T15:32:59.391Z,60.94
2023-04-18T15:35:29.830Z,61.25
2023-04-18T15:38:00.432Z,61.60
2023-04-18T15:40:33.384Z,61.77
2023-04-18T15:43:04.255Z,61.45
2023-04-18T15:45:34.489Z,61.48
2023-04-18T15:48:04.789Z,61.37
2023-04-18T15:50:35.131Z,61.71
2023-04-18T15:53:05.485Z,61.72
2023-04-18T15:55:38.532Z,61.87
2023-04-18T15:58:08.950Z,62.12
2023-04-18T16:00:50.906Z,62.04
2023-04-18T16:03:21.412Z,62.22
2023-04-18T16:05:51.928Z,62.30
2023-04-18T16:08:22.274Z,62.49
2023-04-18T16:10:55.451Z,62.18
2023-04-18T16:13:25.777Z,62.07
2023-04-18T16:15:56.274Z,62.48
2023-04-18T16:18:26.496Z,62.54
2023-04-18T16:20:56.734Z,62.86
2023-04-18T16:23:27.946Z,62.95
2023-04-18T16:26:00.875Z,62.86
2023-04-18T16:28:31.089Z,62.71
2023-04-18T16:31:01.403Z,63.11
2023-04-18T16:33:31.656Z,63.50
2023-04-18T16:36:03.493Z,63.38
2023-04-18T16:38:33.799Z,63.33
2023-04-18T16:41:09.611Z,63.29
2023-04-18T16:43:40.014Z,63.10
2023-04-18T16:46:12.109Z,63.17
2023-04-18T16:48:42.513Z,62.95
2023-04-18T16:51:13.320Z,63.32
2023-04-18T16:53:44.764Z,63.61
2023-04-18T16:56:17.817Z,63.77
2023-04-18T16:58:48.576Z,63.84
2023-04-18T17:01:20.653Z,64.14
2023-04-18T17:03:51.650Z,64.29
2023-04-18T17:06:24.999Z,64.41
2023-04-18T17:08:55.915Z,64.47
2023-04-18T17:11:30.306Z,64.55
2023-04-18T17:14:00.841Z,64.49
2023-04-18T17:16:30.996Z,64.70
2023-04-18T17:19:01.855Z,64.82
2023-04-18T17:21:33.553Z,64.93
2023-04-18T17:24:04.114Z,64.87
2023-04-18T17:26:37.638Z,65.12
2023-04-18T17:29:07.862Z,65.19
2023-04-18T17:31:38.043Z,65.38
2023-04-18T17:34:08.547Z,65.15
2023-04-18T17:36:38.893Z,65.22
2023-04-18T17:39:09.917Z,65.40
2023-04-18T17:41:42.576Z,65.43
2023-04-18T17:44:12.847Z,65.73
2023-04-18T17:46:43.616Z,65.67
2023-04-18T17:49:14.844Z,65.62
2023-04-18T17:51:46.366Z,65.31
2023-04-18T17:54:21.351Z,65.31
2023-04-18T17:56:56.959Z,65.66
2023-04-18T17:59:28.491Z,65.43
2023-04-18T18:01:59.745Z,65.50
2023-04-18T18:04:30.650Z,65.98
2023-04-18T18:07:04.317Z,65.65
2023-04-18T18:09:34.482Z,65.92
2023-04-18T18:12:07.627Z,65.87
2023-04-18T18:14:37.958Z,66.01
2023-04-18T18:17:08.181Z,65.91
2023-04-18T18:19:39.098Z,65.90
2023-04-18T18:22:09.715Z,65.96
2023-04-18T18:24:40.152Z,66.29
2023-04-18T18:27:13.060Z,65.89
2023-04-18T18:29:43.325Z,65.94
2023-04-18T18:32:13.471Z,65.71
2023-04-18T18:34:43.647Z,66.12
2023-04-18T18:37:13.917Z,65.99
2023-04-18T18:39:44.106Z,65.88
2023-04-18T18:42:17.056Z,66.13
2023-04-18T18:44:47.363Z,66.18
2023-04-18T18:47:17.756Z,66.45
2023-04-18T18:49:48.948Z,66.16
2023-04-18T18:52:19.354Z,66.19
2023-04-18T18:54:49.788Z,66.35
2023-04-18T18:57:22.694Z,66.57
2023-04-18T18:59:56.319Z,66.62
2023-04-18T19:02:26.616Z,66.18
2023-04-18T19:04:57.172Z,66.69
2023-04-18T19:07:29.524Z,66.61
2023-04-18T19:10:01.828Z,66.58
2023-04-18T19:12:34.846Z,66.98
2023-04-18T19:15:05.534Z,66.89
2023-04-18T19:17:36.134Z,67.09
2023-04-18T19:20:07.085Z,67.09
2023-04-18T19:22:37.580Z,67.10
2023-04-18T19:25:09.025Z,67.03
2023-04-18T19:27:41.821Z,67.20
2023-04-18T19:30:13.047Z,67.03
2023-04-18T19:32:43.537Z,66.90
2023-04-18T19:35:13.964Z,66.51
2023-04-18T19:37:49.039Z,66.79
2023-04-18T19:40:20.078Z,66.67
2023-04-18T19:42:55.359Z,66.42
2023-04-18T19:45:26.320Z,66.54
2023-04-18T19:47:57.069Z,66.41
2023-04-18T19:50:28.026Z,66.27
2023-04-18T19:52:58.217Z,66.10
2023-04-18T19:55:28.817Z,66.01
2023-04-18T19:58:02.711Z,65.98
2023-04-18T20:00:34.290Z,65.80
2023-04-18T20:03:04.710Z,65.73
2023-04-18T20:05:35.136Z,65.46
2023-04-18T20:08:05.655Z,65.38
2023-04-18T20:10:37.639Z,65.06
2023-04-18T20:13:11.478Z,64.92
2023-04-18T20:15:42.440Z,64.98
2023-04-18T20:18:12.883Z,64.91
2023-04-18T20:20:43.313Z,65.06
2023-04-18T20:23:14.792Z,64.72
2023-04-18T20:25:45.028Z,64.65
2023-04-18T20:28:18.042Z,64.59
2023-04-18T20:30:48.563Z,64.72
2023-04-18T20:33:18.940Z,64.75
2023-04-18T20:35:49.709Z,64.87
2023-04-18T20:38:23.613Z,65.07
2023-04-18T20:40:59.589Z,64.91
2023-04-18T20:43:55.710Z,65.04
2023-04-18T20:46:32.078Z,64.96
2023-04-18T20:49:09.605Z,65.10
2023-04-18T20:51:40.916Z,64.92
2023-04-18T20:54:11.375Z,64.96
2023-04-18T20:56:41.377Z,65.02
2023-04-18T20:59:14.086Z,64.91
2023-04-18T21:01:44.404Z,64.83
2023-04-18T21:04:14.770Z,64.89
2023-04-18T21:06:45.243Z,64.76
2023-04-18T21:09:15.793Z,64.96
2023-04-18T21:11:46.057Z,64.96
2023-04-18T21:14:20.117Z,64.75
2023-04-18T21:16:50.229Z,65.10
2023-04-18T21:19:20.281Z,65.17
2023-04-18T21:21:50.473Z,65.07
2023-04-18T21:24:20.627Z,65.17
2023-04-18T21:26:50.956Z,65.31
2023-04-18T21:29:24.084Z,65.29
2023-04-18T21:31:54.362Z,65.26
2023-04-18T21:34:24.555Z,65.26
2023-04-18T21:36:54.668Z,65.25
2023-04-18T21:39:25.043Z,65.30
2023-04-18T21:41:55.543Z,65.12
2023-04-18T21:44:28.401Z,65.07
2023-04-18T21:46:59.647Z,65.21
2023-04-18T21:49:29.907Z,65.02
2023-04-18T21:52:00.131Z,65.15
2023-04-18T21:54:30.471Z,65.28
2023-04-18T21:57:00.955Z,65.20
2023-04-18T21:59:34.174Z,65.23
2023-04-18T22:02:05.141Z,65.31
2023-04-18T22:04:38.256Z,65.21
2023-04-18T22:07:09.012Z,65.24
2023-04-18T22:09:39.321Z,65.40
2023-04-18T22:12:09.658Z,65.39
2023-04-18T22:14:49.443Z,65.09
2023-04-18T22:17:21.083Z,65.21
2023-04-18T22:19:51.548Z,65.18
2023-04-18T22:22:22.254Z,65.42
2023-04-18T22:24:52.475Z,65.05
2023-04-18T22:27:22.752Z,64.82
2023-04-18T22:29:55.848Z,64.72
2023-04-18T22:32:26.091Z,64.56
2023-04-18T22:34:56.923Z,64.49
2023-04-18T22:37:27.170Z,64.43
2023-04-18T22:39:57.524Z,64.42
2023-04-18T22:42:29.895Z,64.53
2023-04-18T22:45:03.589Z,64.26
2023-04-18T22:47:34.831Z,64.69
2023-04-18T22:50:05.214Z,64.13
2023-04-18T22:52:35.614Z,64.05
2023-04-18T22:55:06.977Z,63.89
2023-04-18T22:57:37.180Z,63.85
2023-04-18T23:00:13.846Z,63.40
2023-04-18T23:02:44.443Z,62.87
2023-04-18T23:05:16.277Z,61.82
2023-04-18T23:07:46.479Z,61.94
2023-04-18T23:10:19.452Z,61.90
2023-04-18T23:12:50.077Z,61.65
2023-04-18T23:15:23.906Z,61.77
2023-04-18T23:17:55.519Z,61.89
2023-04-18T23:20:25.963Z,61.76
2023-04-18T23:22:56.322Z,61.39
2023-04-18T23:25:29.542Z,61.87
2023-04-18T23:27:59.733Z,62.06
2023-04-18T23:30:32.856Z,60.81
2023-04-18T23:33:03.464Z,60.92
2023-04-18T23:35:33.838Z,61.04
2023-04-18T23:38:04.049Z,60.88
2023-04-18T23:40:34.222Z,60.48
2023-04-18T23:43:04.620Z,60.09
2023-04-18T23:45:37.595Z,59.72
2023-04-18T23:48:07.810Z,59.17
2023-04-18T23:50:39.487Z,59.03
2023-04-18T23:53:09.709Z,58.48
2023-04-18T23:55:40.419Z,57.27
2023-04-18T23:58:10.558Z,57.93
